sensor_id;sensor_type;location;lat;lon;timestamp;P1;durP1;ratioP1;P2;durP2;ratioP2
14876;SDS011;69691;48.172;17.070;2024-03-08T00:00:07;59.45;;;31.58;;
14876;SDS011;69691;48.172;17.070;2024-03-08T00:02:41;69.78;;;32.85;;
14876;SDS011;69691;48.172;17.070;2024-03-08T00:05:08;74.53;;;36.30;;
14876;SDS011;69691;48.172;17.070;2024-03-08T00:07:35;74.90;;;36.20;;
14876;SDS011;69691;48.172;17.070;2024-03-08T00:10:02;81.88;;;40.75;;
14876;SDS011;69691;48.172;17.070;2024-03-08T00:12:36;87.38;;;39.22;;
14876;SDS011;69691;48.172;17.070;2024-03-08T00:15:10;87.93;;;40.78;;
14876;SDS011;69691;48.172;17.070;2024-03-08T00:17:40;96.97;;;39.60;;
14876;SDS011;69691;48.172;17.070;2024-03-08T00:20:07;94.75;;;43.90;;
14876;SDS011;69691;48.172;17.070;2024-03-08T00:22:36;92.10;;;42.10;;
14876;SDS011;69691;48.172;17.070;2024-03-08T00:25:03;88.15;;;41.40;;
14876;SDS011;69691;48.172;17.070;2024-03-08T00:27:32;87.90;;;42.25;;
14876;SDS011;69691;48.172;17.070;2024-03-08T00:29:58;96.70;;;42.75;;
14876;SDS011;69691;48.172;17.070;2024-03-08T00:32:25;91.65;;;41.63;;
14876;SDS011;69691;48.172;17.070;2024-03-08T00:34:53;89.22;;;42.22;;
14876;SDS011;69691;48.172;17.070;2024-03-08T00:37:22;92.75;;;42.63;;
14876;SDS011;69691;48.172;17.070;2024-03-08T00:39:51;97.10;;;43.33;;
14876;SDS011;69691;48.172;17.070;2024-03-08T00:42:17;100.50;;;44.30;;
14876;SDS011;69691;48.172;17.070;2024-03-08T00:44:44;92.35;;;43.60;;
14876;SDS011;69691;48.172;17.070;2024-03-08T00:47:11;92.97;;;41.67;;
14876;SDS011;69691;48.172;17.070;2024-03-08T00:49:37;93.72;;;42.05;;
14876;SDS011;69691;48.172;17.070;2024-03-08T00:52:03;91.70;;;44.72;;
14876;SDS011;69691;48.172;17.070;2024-03-08T00:54:34;102.90;;;43.90;;
14876;SDS011;69691;48.172;17.070;2024-03-08T00:57:03;90.53;;;42.58;;
14876;SDS011;69691;48.172;17.070;2024-03-08T00:59:29;86.70;;;43.40;;
14876;SDS011;69691;48.172;17.070;2024-03-08T01:01:58;106.82;;;45.90;;
14876;SDS011;69691;48.172;17.070;2024-03-08T01:04:27;96.57;;;45.45;;
14876;SDS011;69691;48.172;17.070;2024-03-08T01:06:57;91.82;;;44.10;;
14876;SDS011;69691;48.172;17.070;2024-03-08T01:09:23;92.70;;;44.35;;
14876;SDS011;69691;48.172;17.070;2024-03-08T01:11:49;103.97;;;44.03;;
14876;SDS011;69691;48.172;17.070;2024-03-08T01:14:16;95.43;;;43.47;;
14876;SDS011;69691;48.172;17.070;2024-03-08T01:16:42;91.05;;;41.85;;
14876;SDS011;69691;48.172;17.070;2024-03-08T01:19:07;95.43;;;43.95;;
14876;SDS011;69691;48.172;17.070;2024-03-08T01:21:34;93.60;;;43.78;;
14876;SDS011;69691;48.172;17.070;2024-03-08T01:23:59;98.65;;;43.38;;
14876;SDS011;69691;48.172;17.070;2024-03-08T01:26:25;94.38;;;43.83;;
14876;SDS011;69691;48.172;17.070;2024-03-08T01:28:51;97.53;;;43.28;;
14876;SDS011;69691;48.172;17.070;2024-03-08T01:31:17;94.80;;;43.97;;
14876;SDS011;69691;48.172;17.070;2024-03-08T01:33:43;94.03;;;41.70;;
14876;SDS011;69691;48.172;17.070;2024-03-08T01:36:08;97.40;;;44.53;;
14876;SDS011;69691;48.172;17.070;2024-03-08T01:38:34;95.63;;;43.15;;
14876;SDS011;69691;48.172;17.070;2024-03-08T01:41:01;94.40;;;44.17;;
14876;SDS011;69691;48.172;17.070;2024-03-08T01:43:28;98.75;;;44.30;;
14876;SDS011;69691;48.172;17.070;2024-03-08T01:45:58;93.85;;;45.30;;
14876;SDS011;69691;48.172;17.070;2024-03-08T01:48:30;92.57;;;43.43;;
14876;SDS011;69691;48.172;17.070;2024-03-08T01:50:56;91.38;;;44.70;;
14876;SDS011;69691;48.172;17.070;2024-03-08T01:53:26;93.55;;;43.35;;
14876;SDS011;69691;48.172;17.070;2024-03-08T01:55:54;93.90;;;44.08;;
14876;SDS011;69691;48.172;17.070;2024-03-08T01:58:22;95.22;;;44.75;;
14876;SDS011;69691;48.172;17.070;2024-03-08T02:00:50;96.15;;;44.10;;
14876;SDS011;69691;48.172;17.070;2024-03-08T02:03:18;92.22;;;43.67;;
14876;SDS011;69691;48.172;17.070;2024-03-08T02:05:44;96.75;;;44.55;;
14876;SDS011;69691;48.172;17.070;2024-03-08T02:08:10;96.57;;;44.03;;
14876;SDS011;69691;48.172;17.070;2024-03-08T02:10:39;96.90;;;46.83;;
14876;SDS011;69691;48.172;17.070;2024-03-08T02:13:07;98.70;;;46.28;;
14876;SDS011;69691;48.172;17.070;2024-03-08T02:18:24;103.57;;;44.42;;
14876;SDS011;69691;48.172;17.070;2024-03-08T02:20:53;104.55;;;48.20;;
14876;SDS011;69691;48.172;17.070;2024-03-08T02:23:24;101.20;;;45.55;;
14876;SDS011;69691;48.172;17.070;2024-03-08T02:25:51;99.50;;;46.45;;
14876;SDS011;69691;48.172;17.070;2024-03-08T02:28:19;93.00;;;45.53;;
14876;SDS011;69691;48.172;17.070;2024-03-08T02:30:46;93.03;;;44.17;;
14876;SDS011;69691;48.172;17.070;2024-03-08T02:33:13;93.00;;;46.63;;
14876;SDS011;69691;48.172;17.070;2024-03-08T02:35:46;96.45;;;44.38;;
14876;SDS011;69691;48.172;17.070;2024-03-08T02:38:13;89.55;;;42.85;;
14876;SDS011;69691;48.172;17.070;2024-03-08T02:40:42;92.78;;;46.58;;
14876;SDS011;69691;48.172;17.070;2024-03-08T02:43:09;97.80;;;45.15;;
14876;SDS011;69691;48.172;17.070;2024-03-08T02:45:36;105.97;;;45.50;;
14876;SDS011;69691;48.172;17.070;2024-03-08T02:48:02;102.70;;;47.45;;
14876;SDS011;69691;48.172;17.070;2024-03-08T02:50:28;101.53;;;47.85;;
14876;SDS011;69691;48.172;17.070;2024-03-08T02:52:54;103.13;;;44.70;;
14876;SDS011;69691;48.172;17.070;2024-03-08T02:55:20;94.47;;;47.28;;
14876;SDS011;69691;48.172;17.070;2024-03-08T02:57:45;93.72;;;46.58;;
14876;SDS011;69691;48.172;17.070;2024-03-08T03:00:14;101.60;;;45.42;;
14876;SDS011;69691;48.172;17.070;2024-03-08T03:02:41;90.07;;;43.53;;
14876;SDS011;69691;48.172;17.070;2024-03-08T03:05:07;109.30;;;45.25;;
14876;SDS011;69691;48.172;17.070;2024-03-08T03:07:35;93.53;;;45.25;;
14876;SDS011;69691;48.172;17.070;2024-03-08T03:10:01;106.57;;;47.33;;
14876;SDS011;69691;48.172;17.070;2024-03-08T03:12:27;102.50;;;47.38;;
14876;SDS011;69691;48.172;17.070;2024-03-08T03:14:54;99.85;;;46.28;;
14876;SDS011;69691;48.172;17.070;2024-03-08T03:17:24;99.55;;;45.10;;
14876;SDS011;69691;48.172;17.070;2024-03-08T03:19:51;102.30;;;45.28;;
14876;SDS011;69691;48.172;17.070;2024-03-08T03:22:18;99.60;;;46.55;;
14876;SDS011;69691;48.172;17.070;2024-03-08T03:24:45;101.00;;;46.10;;
14876;SDS011;69691;48.172;17.070;2024-03-08T03:27:16;99.63;;;46.38;;
14876;SDS011;69691;48.172;17.070;2024-03-08T03:29:43;95.50;;;43.80;;
14876;SDS011;69691;48.172;17.070;2024-03-08T03:32:12;98.75;;;44.75;;
14876;SDS011;69691;48.172;17.070;2024-03-08T03:34:39;100.65;;;44.70;;
14876;SDS011;69691;48.172;17.070;2024-03-08T03:37:06;97.28;;;45.13;;
14876;SDS011;69691;48.172;17.070;2024-03-08T03:39:33;96.57;;;44.10;;
14876;SDS011;69691;48.172;17.070;2024-03-08T03:42:00;102.63;;;44.95;;
14876;SDS011;69691;48.172;17.070;2024-03-08T03:44:27;106.50;;;47.08;;
14876;SDS011;69691;48.172;17.070;2024-03-08T03:46:54;101.47;;;46.15;;
14876;SDS011;69691;48.172;17.070;2024-03-08T03:49:20;107.47;;;48.25;;
14876;SDS011;69691;48.172;17.070;2024-03-08T03:51:46;101.60;;;45.40;;
14876;SDS011;69691;48.172;17.070;2024-03-08T03:54:12;104.45;;;47.53;;
14876;SDS011;69691;48.172;17.070;2024-03-08T03:56:38;112.47;;;46.65;;
14876;SDS011;69691;48.172;17.070;2024-03-08T03:59:05;97.60;;;45.33;;
14876;SDS011;69691;48.172;17.070;2024-03-08T04:01:32;97.75;;;46.95;;
14876;SDS011;69691;48.172;17.070;2024-03-08T04:03:59;91.25;;;43.08;;
14876;SDS011;69691;48.172;17.070;2024-03-08T04:06:25;97.20;;;43.95;;
14876;SDS011;69691;48.172;17.070;2024-03-08T04:08:50;94.80;;;43.85;;
14876;SDS011;69691;48.172;17.070;2024-03-08T04:11:16;91.10;;;43.45;;
14876;SDS011;69691;48.172;17.070;2024-03-08T04:13:42;95.22;;;42.17;;
14876;SDS011;69691;48.172;17.070;2024-03-08T04:16:08;96.05;;;43.25;;
14876;SDS011;69691;48.172;17.070;2024-03-08T04:18:36;100.35;;;45.50;;
14876;SDS011;69691;48.172;17.070;2024-03-08T04:21:05;97.93;;;43.58;;
14876;SDS011;69691;48.172;17.070;2024-03-08T04:23:34;86.45;;;43.38;;
14876;SDS011;69691;48.172;17.070;2024-03-08T04:26:01;99.32;;;43.88;;
14876;SDS011;69691;48.172;17.070;2024-03-08T04:28:29;96.75;;;43.33;;
14876;SDS011;69691;48.172;17.070;2024-03-08T04:30:56;104.10;;;44.15;;
14876;SDS011;69691;48.172;17.070;2024-03-08T04:33:22;93.82;;;41.92;;
14876;SDS011;69691;48.172;17.070;2024-03-08T04:35:48;93.07;;;43.28;;
14876;SDS011;69691;48.172;17.070;2024-03-08T04:38:14;98.50;;;45.00;;
14876;SDS011;69691;48.172;17.070;2024-03-08T04:40:41;92.00;;;44.00;;
14876;SDS011;69691;48.172;17.070;2024-03-08T04:43:07;92.55;;;44.45;;
14876;SDS011;69691;48.172;17.070;2024-03-08T04:45:34;92.35;;;41.70;;
14876;SDS011;69691;48.172;17.070;2024-03-08T04:47:59;91.35;;;44.42;;
14876;SDS011;69691;48.172;17.070;2024-03-08T04:50:25;99.22;;;44.00;;
14876;SDS011;69691;48.172;17.070;2024-03-08T04:52:54;97.30;;;44.65;;
14876;SDS011;69691;48.172;17.070;2024-03-08T04:55:20;90.40;;;43.75;;
14876;SDS011;69691;48.172;17.070;2024-03-08T04:57:47;91.97;;;43.10;;
14876;SDS011;69691;48.172;17.070;2024-03-08T05:00:14;90.40;;;43.22;;
14876;SDS011;69691;48.172;17.070;2024-03-08T05:02:41;100.55;;;44.28;;
14876;SDS011;69691;48.172;17.070;2024-03-08T05:05:10;101.35;;;43.05;;
14876;SDS011;69691;48.172;17.070;2024-03-08T05:07:39;100.72;;;45.08;;
14876;SDS011;69691;48.172;17.070;2024-03-08T05:10:05;96.72;;;46.25;;
14876;SDS011;69691;48.172;17.070;2024-03-08T05:12:35;92.53;;;43.10;;
14876;SDS011;69691;48.172;17.070;2024-03-08T05:15:01;97.63;;;43.65;;
14876;SDS011;69691;48.172;17.070;2024-03-08T05:17:27;97.78;;;44.28;;
14876;SDS011;69691;48.172;17.070;2024-03-08T05:19:53;98.70;;;45.67;;
14876;SDS011;69691;48.172;17.070;2024-03-08T05:22:18;95.43;;;44.47;;
14876;SDS011;69691;48.172;17.070;2024-03-08T05:24:44;94.72;;;42.50;;
14876;SDS011;69691;48.172;17.070;2024-03-08T05:27:11;105.40;;;48.05;;
14876;SDS011;69691;48.172;17.070;2024-03-08T05:29:38;95.43;;;44.45;;
14876;SDS011;69691;48.172;17.070;2024-03-08T05:32:04;90.93;;;45.00;;
14876;SDS011;69691;48.172;17.070;2024-03-08T05:34:30;90.95;;;44.33;;
14876;SDS011;69691;48.172;17.070;2024-03-08T05:36:55;94.53;;;45.85;;
14876;SDS011;69691;48.172;17.070;2024-03-08T05:39:23;100.07;;;44.03;;
14876;SDS011;69691;48.172;17.070;2024-03-08T05:41:49;94.80;;;43.53;;
14876;SDS011;69691;48.172;17.070;2024-03-08T05:44:15;95.30;;;44.28;;
14876;SDS011;69691;48.172;17.070;2024-03-08T05:46:44;92.68;;;42.00;;
14876;SDS011;69691;48.172;17.070;2024-03-08T05:49:11;98.05;;;45.25;;
14876;SDS011;69691;48.172;17.070;2024-03-08T05:51:38;96.82;;;45.03;;
14876;SDS011;69691;48.172;17.070;2024-03-08T05:54:06;91.03;;;41.90;;
14876;SDS011;69691;48.172;17.070;2024-03-08T05:56:38;97.40;;;44.55;;
14876;SDS011;69691;48.172;17.070;2024-03-08T05:59:08;95.47;;;44.33;;
14876;SDS011;69691;48.172;17.070;2024-03-08T06:01:35;91.53;;;42.83;;
14876;SDS011;69691;48.172;17.070;2024-03-08T06:04:02;96.63;;;43.53;;
14876;SDS011;69691;48.172;17.070;2024-03-08T06:06:29;99.38;;;43.42;;
14876;SDS011;69691;48.172;17.070;2024-03-08T06:08:55;84.80;;;40.58;;
14876;SDS011;69691;48.172;17.070;2024-03-08T06:11:24;90.65;;;40.65;;
14876;SDS011;69691;48.172;17.070;2024-03-08T06:13:53;83.97;;;40.58;;
14876;SDS011;69691;48.172;17.070;2024-03-08T06:16:25;91.45;;;41.83;;
14876;SDS011;69691;48.172;17.070;2024-03-08T06:18:55;84.03;;;39.75;;
14876;SDS011;69691;48.172;17.070;2024-03-08T06:21:27;94.80;;;42.90;;
14876;SDS011;69691;48.172;17.070;2024-03-08T06:23:53;78.20;;;38.33;;
14876;SDS011;69691;48.172;17.070;2024-03-08T06:26:23;74.05;;;35.28;;
14876;SDS011;69691;48.172;17.070;2024-03-08T06:28:54;74.97;;;35.92;;
14876;SDS011;69691;48.172;17.070;2024-03-08T06:31:20;77.22;;;33.33;;
14876;SDS011;69691;48.172;17.070;2024-03-08T06:33:46;67.60;;;32.08;;
14876;SDS011;69691;48.172;17.070;2024-03-08T06:36:15;68.10;;;32.83;;
14876;SDS011;69691;48.172;17.070;2024-03-08T06:38:45;62.15;;;32.30;;
14876;SDS011;69691;48.172;17.070;2024-03-08T06:41:11;63.85;;;32.20;;
14876;SDS011;69691;48.172;17.070;2024-03-08T06:43:41;69.88;;;34.00;;
14876;SDS011;69691;48.172;17.070;2024-03-08T06:46:15;58.63;;;29.98;;
14876;SDS011;69691;48.172;17.070;2024-03-08T06:48:41;55.33;;;27.67;;
14876;SDS011;69691;48.172;17.070;2024-03-08T06:51:06;53.28;;;28.75;;
14876;SDS011;69691;48.172;17.070;2024-03-08T06:53:32;53.92;;;27.63;;
14876;SDS011;69691;48.172;17.070;2024-03-08T06:56:00;56.53;;;29.98;;
14876;SDS011;69691;48.172;17.070;2024-03-08T06:58:27;53.38;;;28.65;;
14876;SDS011;69691;48.172;17.070;2024-03-08T07:00:53;59.50;;;28.83;;
14876;SDS011;69691;48.172;17.070;2024-03-08T07:03:23;51.00;;;25.73;;
14876;SDS011;69691;48.172;17.070;2024-03-08T07:05:49;49.53;;;26.70;;
14876;SDS011;69691;48.172;17.070;2024-03-08T07:08:15;51.78;;;29.15;;
14876;SDS011;69691;48.172;17.070;2024-03-08T07:10:42;49.83;;;28.13;;
14876;SDS011;69691;48.172;17.070;2024-03-08T07:13:10;55.80;;;28.17;;
14876;SDS011;69691;48.172;17.070;2024-03-08T07:15:36;52.45;;;27.40;;
14876;SDS011;69691;48.172;17.070;2024-03-08T07:18:02;57.00;;;28.60;;
14876;SDS011;69691;48.172;17.070;2024-03-08T07:20:28;58.95;;;27.38;;
14876;SDS011;69691;48.172;17.070;2024-03-08T07:22:54;55.08;;;28.65;;
14876;SDS011;69691;48.172;17.070;2024-03-08T07:25:20;59.78;;;29.75;;
14876;SDS011;69691;48.172;17.070;2024-03-08T07:27:53;59.30;;;28.90;;
14876;SDS011;69691;48.172;17.070;2024-03-08T07:30:24;57.50;;;28.30;;
14876;SDS011;69691;48.172;17.070;2024-03-08T07:33:09;63.13;;;30.92;;
14876;SDS011;69691;48.172;17.070;2024-03-08T07:35:37;61.22;;;29.58;;
14876;SDS011;69691;48.172;17.070;2024-03-08T07:38:04;63.45;;;31.45;;
14876;SDS011;69691;48.172;17.070;2024-03-08T07:40:31;63.80;;;32.25;;
14876;SDS011;69691;48.172;17.070;2024-03-08T07:43:00;65.03;;;32.80;;
14876;SDS011;69691;48.172;17.070;2024-03-08T07:45:27;61.03;;;30.75;;
14876;SDS011;69691;48.172;17.070;2024-03-08T07:47:53;67.32;;;33.78;;
14876;SDS011;69691;48.172;17.070;2024-03-08T07:50:19;64.30;;;32.38;;
14876;SDS011;69691;48.172;17.070;2024-03-08T07:52:45;70.05;;;31.42;;
14876;SDS011;69691;48.172;17.070;2024-03-08T07:55:11;64.80;;;33.72;;
14876;SDS011;69691;48.172;17.070;2024-03-08T07:57:36;65.07;;;33.22;;
14876;SDS011;69691;48.172;17.070;2024-03-08T08:00:05;61.88;;;31.63;;
14876;SDS011;69691;48.172;17.070;2024-03-08T08:02:34;69.03;;;33.63;;
14876;SDS011;69691;48.172;17.070;2024-03-08T08:05:01;58.42;;;30.92;;
14876;SDS011;69691;48.172;17.070;2024-03-08T08:07:27;63.53;;;31.70;;
14876;SDS011;69691;48.172;17.070;2024-03-08T08:09:53;61.55;;;31.58;;
14876;SDS011;69691;48.172;17.070;2024-03-08T08:12:19;59.03;;;31.10;;
14876;SDS011;69691;48.172;17.070;2024-03-08T08:14:46;61.95;;;31.08;;
14876;SDS011;69691;48.172;17.070;2024-03-08T08:17:12;66.63;;;31.67;;
14876;SDS011;69691;48.172;17.070;2024-03-08T08:19:38;61.35;;;31.40;;
14876;SDS011;69691;48.172;17.070;2024-03-08T08:22:06;73.43;;;34.33;;
14876;SDS011;69691;48.172;17.070;2024-03-08T08:24:34;61.22;;;30.75;;
14876;SDS011;69691;48.172;17.070;2024-03-08T08:27:02;60.00;;;31.27;;
14876;SDS011;69691;48.172;17.070;2024-03-08T08:29:29;64.22;;;31.48;;
14876;SDS011;69691;48.172;17.070;2024-03-08T08:31:57;60.53;;;29.77;;
14876;SDS011;69691;48.172;17.070;2024-03-08T08:34:24;58.58;;;28.40;;
14876;SDS011;69691;48.172;17.070;2024-03-08T08:36:52;53.88;;;30.10;;
14876;SDS011;69691;48.172;17.070;2024-03-08T08:39:18;54.58;;;29.85;;
14876;SDS011;69691;48.172;17.070;2024-03-08T08:41:44;58.50;;;30.13;;
14876;SDS011;69691;48.172;17.070;2024-03-08T08:44:10;58.40;;;31.33;;
14876;SDS011;69691;48.172;17.070;2024-03-08T08:46:37;61.97;;;31.52;;
14876;SDS011;69691;48.172;17.070;2024-03-08T08:49:04;59.22;;;32.13;;
14876;SDS011;69691;48.172;17.070;2024-03-08T08:51:31;55.72;;;30.17;;
14876;SDS011;69691;48.172;17.070;2024-03-08T08:53:58;63.05;;;32.40;;
14876;SDS011;69691;48.172;17.070;2024-03-08T08:56:24;61.95;;;32.17;;
14876;SDS011;69691;48.172;17.070;2024-03-08T08:58:51;60.03;;;30.73;;
14876;SDS011;69691;48.172;17.070;2024-03-08T09:01:20;59.00;;;31.65;;
14876;SDS011;69691;48.172;17.070;2024-03-08T09:03:46;55.10;;;29.40;;
14876;SDS011;69691;48.172;17.070;2024-03-08T09:06:12;62.80;;;32.38;;
14876;SDS011;69691;48.172;17.070;2024-03-08T09:08:41;57.67;;;30.58;;
14876;SDS011;69691;48.172;17.070;2024-03-08T09:11:09;52.15;;;26.90;;
14876;SDS011;69691;48.172;17.070;2024-03-08T09:13:35;46.97;;;24.58;;
14876;SDS011;69691;48.172;17.070;2024-03-08T09:16:04;50.78;;;25.52;;
14876;SDS011;69691;48.172;17.070;2024-03-08T09:18:31;53.85;;;27.63;;
14876;SDS011;69691;48.172;17.070;2024-03-08T09:20:57;54.40;;;28.65;;
14876;SDS011;69691;48.172;17.070;2024-03-08T09:23:24;55.97;;;27.75;;
14876;SDS011;69691;48.172;17.070;2024-03-08T09:25:58;50.28;;;25.88;;
14876;SDS011;69691;48.172;17.070;2024-03-08T09:28:24;53.97;;;28.25;;
14876;SDS011;69691;48.172;17.070;2024-03-08T09:30:51;54.72;;;28.35;;
14876;SDS011;69691;48.172;17.070;2024-03-08T09:33:17;53.13;;;28.05;;
14876;SDS011;69691;48.172;17.070;2024-03-08T09:35:45;53.47;;;28.52;;
14876;SDS011;69691;48.172;17.070;2024-03-08T09:38:12;55.00;;;28.13;;
14876;SDS011;69691;48.172;17.070;2024-03-08T09:40:40;51.90;;;25.92;;
14876;SDS011;69691;48.172;17.070;2024-03-08T09:43:06;44.30;;;24.42;;
14876;SDS011;69691;48.172;17.070;2024-03-08T09:45:35;43.22;;;22.95;;
14876;SDS011;69691;48.172;17.070;2024-03-08T09:48:04;42.33;;;22.45;;
14876;SDS011;69691;48.172;17.070;2024-03-08T09:50:34;39.90;;;21.77;;
14876;SDS011;69691;48.172;17.070;2024-03-08T09:53:00;40.72;;;22.23;;
14876;SDS011;69691;48.172;17.070;2024-03-08T09:55:26;47.35;;;24.45;;
14876;SDS011;69691;48.172;17.070;2024-03-08T09:57:56;42.28;;;23.23;;
14876;SDS011;69691;48.172;17.070;2024-03-08T10:00:43;41.10;;;22.65;;
14876;SDS011;69691;48.172;17.070;2024-03-08T10:03:09;44.97;;;23.25;;
14876;SDS011;69691;48.172;17.070;2024-03-08T10:05:36;41.53;;;22.75;;
14876;SDS011;69691;48.172;17.070;2024-03-08T10:08:02;42.80;;;23.00;;
14876;SDS011;69691;48.172;17.070;2024-03-08T10:10:30;36.78;;;21.58;;
14876;SDS011;69691;48.172;17.070;2024-03-08T10:12:56;37.15;;;21.70;;
14876;SDS011;69691;48.172;17.070;2024-03-08T10:15:22;39.05;;;21.77;;
14876;SDS011;69691;48.172;17.070;2024-03-08T10:17:49;39.53;;;21.05;;
14876;SDS011;69691;48.172;17.070;2024-03-08T10:20:15;34.25;;;19.00;;
14876;SDS011;69691;48.172;17.070;2024-03-08T10:22:42;30.13;;;17.67;;
14876;SDS011;69691;48.172;17.070;2024-03-08T10:25:12;32.85;;;18.08;;
14876;SDS011;69691;48.172;17.070;2024-03-08T10:27:38;30.42;;;17.52;;
14876;SDS011;69691;48.172;17.070;2024-03-08T10:30:12;31.08;;;17.35;;
14876;SDS011;69691;48.172;17.070;2024-03-08T10:32:41;26.42;;;16.15;;
14876;SDS011;69691;48.172;17.070;2024-03-08T10:35:07;28.23;;;16.77;;
14876;SDS011;69691;48.172;17.070;2024-03-08T10:37:34;24.98;;;15.13;;
14876;SDS011;69691;48.172;17.070;2024-03-08T10:40:18;22.50;;;14.13;;
14876;SDS011;69691;48.172;17.070;2024-03-08T10:45:24;23.88;;;13.02;;
14876;SDS011;69691;48.172;17.070;2024-03-08T10:48:24;24.48;;;14.98;;
14876;SDS011;69691;48.172;17.070;2024-03-08T10:51:05;21.17;;;13.05;;
14876;SDS011;69691;48.172;17.070;2024-03-08T10:53:32;20.15;;;12.90;;
14876;SDS011;69691;48.172;17.070;2024-03-08T10:55:59;17.83;;;12.50;;
14876;SDS011;69691;48.172;17.070;2024-03-08T10:58:26;24.65;;;14.20;;
14876;SDS011;69691;48.172;17.070;2024-03-08T11:00:55;25.45;;;13.30;;
14876;SDS011;69691;48.172;17.070;2024-03-08T11:03:43;17.67;;;12.35;;
14876;SDS011;69691;48.172;17.070;2024-03-08T11:08:48;20.10;;;13.20;;
14876;SDS011;69691;48.172;17.070;2024-03-08T11:11:27;18.88;;;12.38;;
14876;SDS011;69691;48.172;17.070;2024-03-08T11:13:59;19.98;;;12.10;;
14876;SDS011;69691;48.172;17.070;2024-03-08T11:18:59;18.50;;;13.23;;
14876;SDS011;69691;48.172;17.070;2024-03-08T11:21:31;19.65;;;12.65;;
14876;SDS011;69691;48.172;17.070;2024-03-08T11:24:08;23.70;;;12.82;;
14876;SDS011;69691;48.172;17.070;2024-03-08T11:26:38;27.10;;;13.70;;
14876;SDS011;69691;48.172;17.070;2024-03-08T11:32:07;20.90;;;13.13;;
14876;SDS011;69691;48.172;17.070;2024-03-08T11:34:36;24.63;;;14.00;;
14876;SDS011;69691;48.172;17.070;2024-03-08T11:37:12;23.27;;;13.32;;
14876;SDS011;69691;48.172;17.070;2024-03-08T11:39:40;21.33;;;12.35;;
14876;SDS011;69691;48.172;17.070;2024-03-08T11:42:17;18.90;;;11.82;;
14876;SDS011;69691;48.172;17.070;2024-03-08T11:44:47;19.45;;;12.20;;
14876;SDS011;69691;48.172;17.070;2024-03-08T11:47:14;20.10;;;12.52;;
14876;SDS011;69691;48.172;17.070;2024-03-08T11:49:41;18.42;;;12.52;;
14876;SDS011;69691;48.172;17.070;2024-03-08T11:52:12;18.30;;;11.55;;
14876;SDS011;69691;48.172;17.070;2024-03-08T11:54:39;18.02;;;12.93;;
14876;SDS011;69691;48.172;17.070;2024-03-08T11:57:17;19.88;;;13.05;;
14876;SDS011;69691;48.172;17.070;2024-03-08T11:59:53;16.73;;;12.57;;
14876;SDS011;69691;48.172;17.070;2024-03-08T12:02:22;19.60;;;12.63;;
14876;SDS011;69691;48.172;17.070;2024-03-08T12:04:55;17.25;;;11.93;;
14876;SDS011;69691;48.172;17.070;2024-03-08T12:07:25;17.48;;;11.85;;
14876;SDS011;69691;48.172;17.070;2024-03-08T12:12:44;18.10;;;12.43;;
14876;SDS011;69691;48.172;17.070;2024-03-08T12:15:18;14.73;;;11.32;;
14876;SDS011;69691;48.172;17.070;2024-03-08T12:17:53;16.88;;;12.30;;
14876;SDS011;69691;48.172;17.070;2024-03-08T12:20:21;15.93;;;11.27;;
14876;SDS011;69691;48.172;17.070;2024-03-08T12:22:52;13.88;;;10.63;;
14876;SDS011;69691;48.172;17.070;2024-03-08T12:25:21;18.02;;;10.95;;
14876;SDS011;69691;48.172;17.070;2024-03-08T12:27:48;17.08;;;12.15;;
14876;SDS011;69691;48.172;17.070;2024-03-08T12:33:07;16.55;;;10.85;;
14876;SDS011;69691;48.172;17.070;2024-03-08T12:35:35;16.20;;;11.30;;
14876;SDS011;69691;48.172;17.070;2024-03-08T12:38:02;16.40;;;10.98;;
14876;SDS011;69691;48.172;17.070;2024-03-08T12:40:29;15.15;;;10.63;;
14876;SDS011;69691;48.172;17.070;2024-03-08T12:42:57;14.05;;;10.52;;
14876;SDS011;69691;48.172;17.070;2024-03-08T12:45:24;15.80;;;11.23;;
14876;SDS011;69691;48.172;17.070;2024-03-08T12:47:53;18.27;;;12.18;;
14876;SDS011;69691;48.172;17.070;2024-03-08T12:50:20;18.95;;;12.23;;
14876;SDS011;69691;48.172;17.070;2024-03-08T12:52:47;19.30;;;11.90;;
14876;SDS011;69691;48.172;17.070;2024-03-08T12:55:14;18.67;;;12.65;;
14876;SDS011;69691;48.172;17.070;2024-03-08T12:57:41;16.10;;;12.13;;
14876;SDS011;69691;48.172;17.070;2024-03-08T13:00:08;19.67;;;12.75;;
14876;SDS011;69691;48.172;17.070;2024-03-08T13:02:47;19.30;;;12.55;;
14876;SDS011;69691;48.172;17.070;2024-03-08T13:05:13;17.80;;;11.43;;
14876;SDS011;69691;48.172;17.070;2024-03-08T13:07:43;19.05;;;11.75;;
14876;SDS011;69691;48.172;17.070;2024-03-08T13:10:14;18.00;;;12.27;;
14876;SDS011;69691;48.172;17.070;2024-03-08T13:12:41;17.45;;;11.50;;
14876;SDS011;69691;48.172;17.070;2024-03-08T13:15:08;17.80;;;11.95;;
14876;SDS011;69691;48.172;17.070;2024-03-08T13:17:45;19.70;;;12.18;;
14876;SDS011;69691;48.172;17.070;2024-03-08T13:20:13;18.65;;;11.48;;
14876;SDS011;69691;48.172;17.070;2024-03-08T13:22:45;18.67;;;12.93;;
14876;SDS011;69691;48.172;17.070;2024-03-08T13:25:11;19.92;;;11.82;;
14876;SDS011;69691;48.172;17.070;2024-03-08T13:27:41;15.52;;;10.25;;
14876;SDS011;69691;48.172;17.070;2024-03-08T13:30:11;19.70;;;11.07;;
14876;SDS011;69691;48.172;17.070;2024-03-08T13:32:42;17.25;;;11.88;;
14876;SDS011;69691;48.172;17.070;2024-03-08T13:35:11;16.73;;;11.57;;
14876;SDS011;69691;48.172;17.070;2024-03-08T13:37:38;18.30;;;12.00;;
14876;SDS011;69691;48.172;17.070;2024-03-08T13:40:08;20.92;;;12.07;;
14876;SDS011;69691;48.172;17.070;2024-03-08T13:42:42;16.90;;;12.48;;
14876;SDS011;69691;48.172;17.070;2024-03-08T13:45:08;17.42;;;12.25;;
14876;SDS011;69691;48.172;17.070;2024-03-08T13:47:38;23.63;;;12.95;;
14876;SDS011;69691;48.172;17.070;2024-03-08T13:50:05;17.45;;;12.98;;
14876;SDS011;69691;48.172;17.070;2024-03-08T13:52:38;18.85;;;13.27;;
14876;SDS011;69691;48.172;17.070;2024-03-08T13:55:05;19.73;;;12.50;;
14876;SDS011;69691;48.172;17.070;2024-03-08T13:57:32;20.98;;;12.02;;
14876;SDS011;69691;48.172;17.070;2024-03-08T13:59:58;21.00;;;13.02;;
14876;SDS011;69691;48.172;17.070;2024-03-08T14:02:25;20.52;;;12.68;;
14876;SDS011;69691;48.172;17.070;2024-03-08T14:04:56;19.73;;;12.73;;
14876;SDS011;69691;48.172;17.070;2024-03-08T14:07:22;19.17;;;12.52;;
14876;SDS011;69691;48.172;17.070;2024-03-08T14:09:51;18.73;;;11.82;;
14876;SDS011;69691;48.172;17.070;2024-03-08T14:12:18;19.95;;;12.80;;
14876;SDS011;69691;48.172;17.070;2024-03-08T14:14:45;17.08;;;11.50;;
14876;SDS011;69691;48.172;17.070;2024-03-08T14:17:10;17.10;;;11.27;;
14876;SDS011;69691;48.172;17.070;2024-03-08T14:19:42;19.55;;;10.88;;
14876;SDS011;69691;48.172;17.070;2024-03-08T14:22:08;22.77;;;12.55;;
14876;SDS011;69691;48.172;17.070;2024-03-08T14:24:38;17.98;;;11.80;;
14876;SDS011;69691;48.172;17.070;2024-03-08T14:27:04;20.52;;;12.95;;
14876;SDS011;69691;48.172;17.070;2024-03-08T14:29:33;18.13;;;12.48;;
14876;SDS011;69691;48.172;17.070;2024-03-08T14:31:59;14.75;;;10.50;;